Airport ID:KRTS
Update Time (UTC):11/12/2019 14:12
Wind Speed (Knots):7
Wind Direction (Magnetic):330
Temperature (°C):4
Dew Point (°C):0
Humidity (%):75
Altimeter (inHg):30.2
Density Altitude (Feet):
Visibility (Miles):10+
Clouds (Hundreds of feet):BKN040 OVC047
Present Weather:
METAR:METAR KRTS 111410Z AUTO 34007KT 10SM BKN040 OVC047 04/M00 A3020 RMK AO2

The data displayed is for advisory purposes only and is not to be used for flight planning or operations.

This page is not automatically refreshed. Reload the page to see current data.